Hopewell, Illinois
Current Conditions -  °F | °C
As of 2:35 AM on Monday 26 Jan 2015 (Local Time) from KC75 Reporting Station
Clear Clear  
Wind Chill:   Ceiling: Unl
Heat Index: 18°   Visibility: 10mi
Dew Point: 13°   Wind: 7mph
Humidity: 80%   Direction: 350°N
Pressure: 30.03"   Gusts: NA
Location:  41.0186°N, 89.479°W
Report Text: KC75 260835Z AUTO 35006KT 10SM CLR M08/M10 A3003 RMK AO2 T10761105
Loading
Personal Weather Stations






























Interactive Weather Map New forecast layout! Learn more

10-Day Weather Forecast

Advertisements
Track Severe Weather on mobile